sensor_id;sensor_type;location;lat;lon;timestamp;pressure;altitude;pressure_sealevel;temperature;humidity
15646;BME280;7922;43.622;1.476;2023-02-23T00:00:57;99926.03;;;9.58;97.89
15646;BME280;7922;43.622;1.476;2023-02-23T00:03:22;99979.44;;;9.89;97.54
15646;BME280;7922;43.622;1.476;2023-02-23T00:05:47;99926.88;;;9.58;98.13
15646;BME280;7922;43.622;1.476;2023-02-23T00:08:13;99914.81;;;9.51;97.81
15646;BME280;7922;43.622;1.476;2023-02-23T00:10:38;99995.94;;;9.96;98.17
15646;BME280;7922;43.622;1.476;2023-02-23T00:13:03;99993.41;;;9.93;98.24
15646;BME280;7922;43.622;1.476;2023-02-23T00:15:28;99966.72;;;9.77;98.24
15646;BME280;7922;43.622;1.476;2023-02-23T00:17:55;99904.53;;;9.44;98.36
15646;BME280;7922;43.622;1.476;2023-02-23T00:20:22;99963.88;;;9.82;98.13
15646;BME280;7922;43.622;1.476;2023-02-23T00:22:48;99896.69;;;9.42;97.90
15646;BME280;7922;43.622;1.476;2023-02-23T00:25:13;99894.03;;;9.42;97.91
15646;BME280;7922;43.622;1.476;2023-02-23T00:27:38;99896.81;;;9.39;97.96
15646;BME280;7922;43.622;1.476;2023-02-23T00:30:04;99950.44;;;9.64;98.13
15646;BME280;7922;43.622;1.476;2023-02-23T00:32:30;99961.66;;;9.71;98.42
15646;BME280;7922;43.622;1.476;2023-02-23T00:34:55;99862.41;;;9.17;98.07
15646;BME280;7922;43.622;1.476;2023-02-23T00:37:20;99883.25;;;9.25;98.06
15646;BME280;7922;43.622;1.476;2023-02-23T00:39:46;99885.84;;;9.26;97.99
15646;BME280;7922;43.622;1.476;2023-02-23T00:42:11;99871.19;;;9.18;98.00
15646;BME280;7922;43.622;1.476;2023-02-23T00:44:36;99893.91;;;9.23;97.92
15646;BME280;7922;43.622;1.476;2023-02-23T00:47:01;99917.94;;;9.39;98.20
15646;BME280;7922;43.622;1.476;2023-02-23T00:49:27;99898.16;;;9.27;97.97
15646;BME280;7922;43.622;1.476;2023-02-23T00:51:52;99902.47;;;9.30;97.92
15646;BME280;7922;43.622;1.476;2023-02-23T00:54:18;99860.25;;;9.05;97.92
15646;BME280;7922;43.622;1.476;2023-02-23T00:56:45;99866.56;;;9.01;97.99
15646;BME280;7922;43.622;1.476;2023-02-23T00:59:11;99926.81;;;9.38;98.18
15646;BME280;7922;43.622;1.476;2023-02-23T01:01:38;99849.38;;;8.89;98.07
15646;BME280;7922;43.622;1.476;2023-02-23T01:04:04;99863.94;;;9.01;98.32
15646;BME280;7922;43.622;1.476;2023-02-23T01:06:29;99916.47;;;9.32;98.59
15646;BME280;7922;43.622;1.476;2023-02-23T01:08:55;99924.09;;;9.39;98.32
15646;BME280;7922;43.622;1.476;2023-02-23T01:11:22;99913.63;;;9.36;98.39
15646;BME280;7922;43.622;1.476;2023-02-23T01:13:51;99917.09;;;9.38;98.16
15646;BME280;7922;43.622;1.476;2023-02-23T01:16:19;99837.75;;;8.95;98.02
15646;BME280;7922;43.622;1.476;2023-02-23T01:18:45;99830.84;;;8.90;98.15
15646;BME280;7922;43.622;1.476;2023-02-23T01:21:15;99818.81;;;8.83;98.13
15646;BME280;7922;43.622;1.476;2023-02-23T01:23:41;99816.19;;;8.82;98.32
15646;BME280;7922;43.622;1.476;2023-02-23T01:26:14;99907.56;;;9.34;97.99
15646;BME280;7922;43.622;1.476;2023-02-23T01:28:40;99834.28;;;8.92;98.06
15646;BME280;7922;43.622;1.476;2023-02-23T01:31:08;99909.38;;;9.32;98.24
15646;BME280;7922;43.622;1.476;2023-02-23T01:33:34;99889.69;;;9.18;97.92
15646;BME280;7922;43.622;1.476;2023-02-23T01:35:59;99889.69;;;9.18;97.96
15646;BME280;7922;43.622;1.476;2023-02-23T01:38:25;99874.13;;;9.10;98.45
15646;BME280;7922;43.622;1.476;2023-02-23T01:40:50;99848.13;;;8.99;98.36
15646;BME280;7922;43.622;1.476;2023-02-23T01:43:20;99887.50;;;9.29;98.25
15646;BME280;7922;43.622;1.476;2023-02-23T01:45:46;99859.00;;;9.15;98.31
15646;BME280;7922;43.622;1.476;2023-02-23T01:48:14;99843.47;;;9.06;98.21
15646;BME280;7922;43.622;1.476;2023-02-23T01:50:50;99865.06;;;9.17;98.16
15646;BME280;7922;43.622;1.476;2023-02-23T01:53:18;99862.03;;;9.04;98.33
15646;BME280;7922;43.622;1.476;2023-02-23T01:55:44;99764.84;;;8.43;98.20
15646;BME280;7922;43.622;1.476;2023-02-23T01:58:14;99768.41;;;8.42;98.47
15646;BME280;7922;43.622;1.476;2023-02-23T02:00:43;99742.63;;;8.24;98.60
15646;BME280;7922;43.622;1.476;2023-02-23T02:03:14;99791.03;;;8.50;98.69
15646;BME280;7922;43.622;1.476;2023-02-23T02:05:43;99797.09;;;8.52;98.84
15646;BME280;7922;43.622;1.476;2023-02-23T02:08:09;99809.59;;;8.70;98.41
15646;BME280;7922;43.622;1.476;2023-02-23T02:10:36;99810.72;;;8.64;98.57
15646;BME280;7922;43.622;1.476;2023-02-23T02:13:01;99811.72;;;8.60;98.42
15646;BME280;7922;43.622;1.476;2023-02-23T02:15:30;99782.34;;;8.46;98.60
15646;BME280;7922;43.622;1.476;2023-02-23T02:20:59;99645.25;;;7.71;98.30
15646;BME280;7922;43.622;1.476;2023-02-23T02:42:15;99751.94;;;8.34;98.98
15646;BME280;7922;43.622;1.476;2023-02-23T02:44:39;99777.66;;;8.54;99.39
15646;BME280;7922;43.622;1.476;2023-02-23T02:47:11;99669.06;;;7.93;99.00
15646;BME280;7922;43.622;1.476;2023-02-23T02:49:54;99719.81;;;8.23;98.94
15646;BME280;7922;43.622;1.476;2023-02-23T02:52:33;99730.25;;;8.26;98.74
15646;BME280;7922;43.622;1.476;2023-02-23T02:55:08;99673.22;;;7.99;98.67
15646;BME280;7922;43.622;1.476;2023-02-23T02:57:38;99669.06;;;7.93;98.47
15646;BME280;7922;43.622;1.476;2023-02-23T03:00:05;99708.59;;;8.18;98.40
15646;BME280;7922;43.622;1.476;2023-02-23T03:02:33;99745.06;;;8.30;98.30
15646;BME280;7922;43.622;1.476;2023-02-23T03:04:59;99698.59;;;8.03;98.28
15646;BME280;7922;43.622;1.476;2023-02-23T03:10:37;99650.53;;;7.71;98.88
15646;BME280;7922;43.622;1.476;2023-02-23T03:13:17;99721.72;;;8.19;98.81
15646;BME280;7922;43.622;1.476;2023-02-23T03:15:59;99720.78;;;8.20;98.94
15646;BME280;7922;43.622;1.476;2023-02-23T03:21:14;99690.56;;;8.06;98.96
15646;BME280;7922;43.622;1.476;2023-02-23T03:26:37;99624.44;;;7.63;99.39
15646;BME280;7922;43.622;1.476;2023-02-23T03:29:13;99579.38;;;7.46;99.08
15646;BME280;7922;43.622;1.476;2023-02-23T03:34:42;99673.66;;;8.11;99.29
15646;BME280;7922;43.622;1.476;2023-02-23T03:37:34;99626.28;;;7.85;99.40
15646;BME280;7922;43.622;1.476;2023-02-23T03:40:07;99649.63;;;7.95;99.62
15646;BME280;7922;43.622;1.476;2023-02-23T03:42:36;99585.97;;;7.58;99.53
15646;BME280;7922;43.622;1.476;2023-02-23T03:45:15;99673.66;;;8.11;99.88
15646;BME280;7922;43.622;1.476;2023-02-23T03:47:43;99597.56;;;7.54;99.81
15646;BME280;7922;43.622;1.476;2023-02-23T03:50:14;99662.81;;;7.95;100.00
15646;BME280;7922;43.622;1.476;2023-02-23T03:52:46;99573.53;;;7.38;100.00
15646;BME280;7922;43.622;1.476;2023-02-23T03:55:17;99641.78;;;7.69;100.00
15646;BME280;7922;43.622;1.476;2023-02-23T03:57:45;99629.00;;;7.58;100.00
15646;BME280;7922;43.622;1.476;2023-02-23T04:00:18;99644.53;;;7.66;100.00
15646;BME280;7922;43.622;1.476;2023-02-23T04:02:48;99641.88;;;7.67;100.00
15646;BME280;7922;43.622;1.476;2023-02-23T04:05:17;99672.91;;;7.84;100.00
15646;BME280;7922;43.622;1.476;2023-02-23T04:07:46;99633.03;;;7.68;100.00
15646;BME280;7922;43.622;1.476;2023-02-23T04:10:12;99660.69;;;7.82;100.00
15646;BME280;7922;43.622;1.476;2023-02-23T04:12:50;99627.47;;;7.53;100.00
15646;BME280;7922;43.622;1.476;2023-02-23T04:18:27;99621.28;;;7.54;100.00
15646;BME280;7922;43.622;1.476;2023-02-23T04:20:54;99636.53;;;7.69;100.00
15646;BME280;7922;43.622;1.476;2023-02-23T04:23:20;99594.97;;;7.52;100.00
15646;BME280;7922;43.622;1.476;2023-02-23T04:25:45;99590.00;;;7.44;100.00
15646;BME280;7922;43.622;1.476;2023-02-23T04:28:10;99533.22;;;7.11;100.00
15646;BME280;7922;43.622;1.476;2023-02-23T04:30:36;99585.78;;;7.39;100.00
15646;BME280;7922;43.622;1.476;2023-02-23T04:33:01;99592.84;;;7.38;100.00
15646;BME280;7922;43.622;1.476;2023-02-23T04:35:27;99616.00;;;7.54;100.00
15646;BME280;7922;43.622;1.476;2023-02-23T04:37:52;99604.91;;;7.44;100.00
15646;BME280;7922;43.622;1.476;2023-02-23T04:40:18;99579.19;;;7.27;100.00
15646;BME280;7922;43.622;1.476;2023-02-23T04:42:43;99546.66;;;7.03;100.00
15646;BME280;7922;43.622;1.476;2023-02-23T04:45:09;99625.00;;;7.48;100.00
15646;BME280;7922;43.622;1.476;2023-02-23T04:47:34;99514.66;;;6.90;100.00
15646;BME280;7922;43.622;1.476;2023-02-23T04:50:00;99584.22;;;7.33;100.00
15646;BME280;7922;43.622;1.476;2023-02-23T04:52:25;99578.38;;;7.25;100.00
15646;BME280;7922;43.622;1.476;2023-02-23T04:54:50;99600.56;;;7.43;100.00
15646;BME280;7922;43.622;1.476;2023-02-23T04:57:16;99573.47;;;7.14;100.00
15646;BME280;7922;43.622;1.476;2023-02-23T04:59:41;99579.41;;;7.21;100.00
15646;BME280;7922;43.622;1.476;2023-02-23T05:02:06;99527.00;;;6.88;100.00
15646;BME280;7922;43.622;1.476;2023-02-23T05:04:32;99579.28;;;7.24;100.00
15646;BME280;7922;43.622;1.476;2023-02-23T05:06:58;99586.28;;;7.25;100.00
15646;BME280;7922;43.622;1.476;2023-02-23T05:09:23;99585.34;;;7.26;100.00
15646;BME280;7922;43.622;1.476;2023-02-23T05:11:48;99506.00;;;6.87;100.00
15646;BME280;7922;43.622;1.476;2023-02-23T05:14:13;99486.44;;;6.69;100.00
15646;BME280;7922;43.622;1.476;2023-02-23T05:16:39;99488.84;;;6.75;100.00
15646;BME280;7922;43.622;1.476;2023-02-23T05:19:04;99518.31;;;6.86;100.00
15646;BME280;7922;43.622;1.476;2023-02-23T05:21:30;99579.22;;;7.26;100.00
15646;BME280;7922;43.622;1.476;2023-02-23T05:23:55;99568.66;;;7.27;100.00
15646;BME280;7922;43.622;1.476;2023-02-23T05:26:20;99557.53;;;7.19;100.00
15646;BME280;7922;43.622;1.476;2023-02-23T05:28:46;99532.94;;;6.93;100.00
15646;BME280;7922;43.622;1.476;2023-02-23T05:31:11;99530.22;;;6.96;100.00
15646;BME280;7922;43.622;1.476;2023-02-23T05:33:37;99549.38;;;7.00;100.00
15646;BME280;7922;43.622;1.476;2023-02-23T05:36:04;99521.81;;;6.85;99.87
15646;BME280;7922;43.622;1.476;2023-02-23T05:38:29;99456.28;;;6.53;99.69
15646;BME280;7922;43.622;1.476;2023-02-23T05:40:54;99481.09;;;6.70;100.00
15646;BME280;7922;43.622;1.476;2023-02-23T05:43:20;99517.00;;;6.98;99.74
15646;BME280;7922;43.622;1.476;2023-02-23T05:45:45;99548.91;;;7.14;99.82
15646;BME280;7922;43.622;1.476;2023-02-23T05:48:11;99541.84;;;7.16;100.00
15646;BME280;7922;43.622;1.476;2023-02-23T05:50:37;99493.78;;;6.84;99.60
15646;BME280;7922;43.622;1.476;2023-02-23T05:53:02;99538.47;;;7.11;99.86
15646;BME280;7922;43.622;1.476;2023-02-23T05:55:28;99454.19;;;6.62;99.99
15646;BME280;7922;43.622;1.476;2023-02-23T05:57:53;99532.47;;;7.07;99.90
15646;BME280;7922;43.622;1.476;2023-02-23T06:00:19;99495.66;;;6.81;99.90
15646;BME280;7922;43.622;1.476;2023-02-23T06:02:44;99505.94;;;6.88;99.35
15646;BME280;7922;43.622;1.476;2023-02-23T06:05:10;99445.59;;;6.57;99.95
15646;BME280;7922;43.622;1.476;2023-02-23T06:07:36;99463.50;;;6.72;99.28
15646;BME280;7922;43.622;1.476;2023-02-23T06:10:02;99447.75;;;6.71;98.95
15646;BME280;7922;43.622;1.476;2023-02-23T06:12:28;99480.53;;;6.87;99.30
15646;BME280;7922;43.622;1.476;2023-02-23T06:14:53;99421.13;;;6.55;98.95
15646;BME280;7922;43.622;1.476;2023-02-23T06:17:18;99482.06;;;6.93;99.31
15646;BME280;7922;43.622;1.476;2023-02-23T06:19:44;99488.81;;;7.00;99.22
15646;BME280;7922;43.622;1.476;2023-02-23T06:22:09;99492.75;;;7.13;99.48
15646;BME280;7922;43.622;1.476;2023-02-23T06:24:34;99450.56;;;6.90;99.33
15646;BME280;7922;43.622;1.476;2023-02-23T06:27:00;99405.00;;;6.64;99.84
15646;BME280;7922;43.622;1.476;2023-02-23T06:29:25;99379.41;;;6.68;99.81
15646;BME280;7922;43.622;1.476;2023-02-23T06:31:50;99418.66;;;6.99;100.00
15646;BME280;7922;43.622;1.476;2023-02-23T06:34:16;99424.28;;;7.13;99.97
15646;BME280;7922;43.622;1.476;2023-02-23T06:36:41;99353.63;;;6.78;100.00
15646;BME280;7922;43.622;1.476;2023-02-23T06:39:08;99431.56;;;7.30;100.00
15646;BME280;7922;43.622;1.476;2023-02-23T06:41:34;99376.41;;;7.02;100.00
15646;BME280;7922;43.622;1.476;2023-02-23T06:44:00;99422.66;;;7.33;100.00
15646;BME280;7922;43.622;1.476;2023-02-23T06:46:25;99347.03;;;6.89;100.00
15646;BME280;7922;43.622;1.476;2023-02-23T06:48:54;99371.06;;;7.04;100.00
15646;BME280;7922;43.622;1.476;2023-02-23T06:51:19;99359.16;;;6.93;100.00
15646;BME280;7922;43.622;1.476;2023-02-23T06:53:44;99359.69;;;7.03;100.00
15646;BME280;7922;43.622;1.476;2023-02-23T06:56:09;99430.41;;;7.37;100.00
15646;BME280;7922;43.622;1.476;2023-02-23T06:58:35;99446.78;;;7.45;100.00
15646;BME280;7922;43.622;1.476;2023-02-23T07:01:00;99454.31;;;7.55;100.00
15646;BME280;7922;43.622;1.476;2023-02-23T07:03:25;99436.97;;;7.49;100.00
15646;BME280;7922;43.622;1.476;2023-02-23T07:05:51;99419.22;;;7.31;100.00
15646;BME280;7922;43.622;1.476;2023-02-23T07:08:17;99377.69;;;7.15;100.00
15646;BME280;7922;43.622;1.476;2023-02-23T07:10:44;99473.78;;;7.74;100.00
15646;BME280;7922;43.622;1.476;2023-02-23T07:13:09;99469.28;;;7.76;100.00
15646;BME280;7922;43.622;1.476;2023-02-23T07:15:35;99480.84;;;7.95;100.00
15646;BME280;7922;43.622;1.476;2023-02-23T07:18:01;99392.66;;;7.59;99.97
15646;BME280;7922;43.622;1.476;2023-02-23T07:20:26;99477.50;;;8.12;99.83
15646;BME280;7922;43.622;1.476;2023-02-23T07:22:51;99451.53;;;7.81;98.80
15646;BME280;7922;43.622;1.476;2023-02-23T07:25:17;99421.41;;;7.87;99.44
15646;BME280;7922;43.622;1.476;2023-02-23T07:27:42;99458.19;;;8.12;99.00
15646;BME280;7922;43.622;1.476;2023-02-23T07:30:08;99499.84;;;8.26;98.83
15646;BME280;7922;43.622;1.476;2023-02-23T07:32:34;99410.13;;;7.83;98.80
15646;BME280;7922;43.622;1.476;2023-02-23T07:34:59;99454.22;;;8.02;98.58
15646;BME280;7922;43.622;1.476;2023-02-23T07:37:24;99517.16;;;8.55;98.03
15646;BME280;7922;43.622;1.476;2023-02-23T07:39:49;99500.13;;;8.62;97.97
15646;BME280;7922;43.622;1.476;2023-02-23T07:42:15;99417.13;;;8.06;97.11
15646;BME280;7922;43.622;1.476;2023-02-23T07:44:40;99517.03;;;8.58;98.13
15646;BME280;7922;43.622;1.476;2023-02-23T07:47:06;99449.03;;;8.20;98.22
15646;BME280;7922;43.622;1.476;2023-02-23T07:49:32;99440.56;;;8.12;98.26
15646;BME280;7922;43.622;1.476;2023-02-23T07:51:58;99431.19;;;8.05;98.32
15646;BME280;7922;43.622;1.476;2023-02-23T07:54:23;99433.91;;;8.04;98.13
15646;BME280;7922;43.622;1.476;2023-02-23T07:56:49;99496.97;;;8.10;99.31
15646;BME280;7922;43.622;1.476;2023-02-23T07:59:14;99498.81;;;8.08;99.79
15646;BME280;7922;43.622;1.476;2023-02-23T08:01:39;99541.81;;;8.32;99.91
15646;BME280;7922;43.622;1.476;2023-02-23T08:04:05;99541.31;;;8.22;100.00
15646;BME280;7922;43.622;1.476;2023-02-23T08:06:30;99539.34;;;8.27;100.00
15646;BME280;7922;43.622;1.476;2023-02-23T08:08:57;99475.06;;;7.86;100.00
15646;BME280;7922;43.622;1.476;2023-02-23T08:11:23;99529.41;;;8.12;100.00
15646;BME280;7922;43.622;1.476;2023-02-23T08:13:48;99495.78;;;7.95;100.00
15646;BME280;7922;43.622;1.476;2023-02-23T08:16:13;99549.34;;;8.42;100.00
15646;BME280;7922;43.622;1.476;2023-02-23T08:18:39;99464.88;;;7.99;99.77
15646;BME280;7922;43.622;1.476;2023-02-23T08:21:04;99476.84;;;8.07;99.97
15646;BME280;7922;43.622;1.476;2023-02-23T08:23:31;99485.69;;;8.28;99.98
15646;BME280;7922;43.622;1.476;2023-02-23T08:25:56;99545.22;;;8.78;99.09
15646;BME280;7922;43.622;1.476;2023-02-23T08:28:22;99483.69;;;8.55;98.89
15646;BME280;7922;43.622;1.476;2023-02-23T08:30:47;99527.22;;;8.87;98.56
15646;BME280;7922;43.622;1.476;2023-02-23T08:33:12;99494.31;;;8.74;97.97
15646;BME280;7922;43.622;1.476;2023-02-23T08:35:38;99566.44;;;9.17;98.03
15646;BME280;7922;43.622;1.476;2023-02-23T08:38:03;99491.75;;;8.73;97.74
15646;BME280;7922;43.622;1.476;2023-02-23T08:40:28;99555.22;;;8.91;98.30
15646;BME280;7922;43.622;1.476;2023-02-23T08:42:54;99459.28;;;8.50;98.27
15646;BME280;7922;43.622;1.476;2023-02-23T08:45:19;99506.47;;;8.78;98.75
15646;BME280;7922;43.622;1.476;2023-02-23T08:47:45;99537.25;;;9.00;98.82
15646;BME280;7922;43.622;1.476;2023-02-23T08:50:12;99505.03;;;8.91;99.14
15646;BME280;7922;43.622;1.476;2023-02-23T08:52:39;99537.38;;;9.17;99.14
15646;BME280;7922;43.622;1.476;2023-02-23T08:55:05;99510.66;;;9.04;99.04
15646;BME280;7922;43.622;1.476;2023-02-23T08:57:34;99473.53;;;8.87;98.93
15646;BME280;7922;43.622;1.476;2023-02-23T09:00:00;99558.84;;;9.30;99.02
15646;BME280;7922;43.622;1.476;2023-02-23T09:02:25;99559.25;;;9.21;98.51
15646;BME280;7922;43.622;1.476;2023-02-23T09:04:50;99565.66;;;9.15;98.42
15646;BME280;7922;43.622;1.476;2023-02-23T09:07:16;99574.88;;;9.25;98.35
15646;BME280;7922;43.622;1.476;2023-02-23T09:09:42;99503.09;;;8.75;98.11
15646;BME280;7922;43.622;1.476;2023-02-23T09:12:07;99492.81;;;8.68;98.12
15646;BME280;7922;43.622;1.476;2023-02-23T09:14:33;99581.69;;;9.10;98.29
15646;BME280;7922;43.622;1.476;2023-02-23T09:16:58;99543.41;;;8.80;98.52
15646;BME280;7922;43.622;1.476;2023-02-23T09:19:23;99515.97;;;8.62;98.46
15646;BME280;7922;43.622;1.476;2023-02-23T09:21:49;99542.88;;;8.72;98.84
15646;BME280;7922;43.622;1.476;2023-02-23T09:24:14;99504.56;;;8.61;98.58
15646;BME280;7922;43.622;1.476;2023-02-23T09:26:39;99597.63;;;9.09;98.79
15646;BME280;7922;43.622;1.476;2023-02-23T09:29:05;99558.84;;;8.89;98.79
15646;BME280;7922;43.622;1.476;2023-02-23T09:31:31;99593.19;;;9.09;98.87
15646;BME280;7922;43.622;1.476;2023-02-23T09:33:57;99569.16;;;8.95;98.56
15646;BME280;7922;43.622;1.476;2023-02-23T09:36:24;99576.88;;;9.00;98.68
15646;BME280;7922;43.622;1.476;2023-02-23T09:38:52;99518.28;;;8.70;98.25
15646;BME280;7922;43.622;1.476;2023-02-23T09:44:00;99577.19;;;8.92;98.55
15646;BME280;7922;43.622;1.476;2023-02-23T09:46:43;99588.00;;;8.86;98.09
15646;BME280;7922;43.622;1.476;2023-02-23T09:49:16;99594.38;;;8.60;97.33
15646;BME280;7922;43.622;1.476;2023-02-23T09:51:47;99543.97;;;8.00;96.44
15646;BME280;7922;43.622;1.476;2023-02-23T09:54:15;99544.94;;;7.97;96.78
15646;BME280;7922;43.622;1.476;2023-02-23T09:56:44;99597.16;;;8.11;96.48
15646;BME280;7922;43.622;1.476;2023-02-23T09:59:13;99539.13;;;7.88;96.49
15646;BME280;7922;43.622;1.476;2023-02-23T10:06:51;99622.38;;;8.18;96.52
15646;BME280;7922;43.622;1.476;2023-02-23T10:12:09;99616.22;;;7.96;96.01
15646;BME280;7922;43.622;1.476;2023-02-23T10:23:11;99582.41;;;7.10;95.84
15646;BME280;7922;43.622;1.476;2023-02-23T10:25:43;99654.97;;;7.44;95.22
15646;BME280;7922;43.622;1.476;2023-02-23T10:28:14;99637.34;;;7.46;95.24
15646;BME280;7922;43.622;1.476;2023-02-23T10:30:40;99623.53;;;7.39;95.88
15646;BME280;7922;43.622;1.476;2023-02-23T10:33:32;99566.94;;;7.01;95.35
15646;BME280;7922;43.622;1.476;2023-02-23T10:36:16;99653.28;;;7.43;94.96
15646;BME280;7922;43.622;1.476;2023-02-23T10:38:42;99574.28;;;6.91;95.08
15646;BME280;7922;43.622;1.476;2023-02-23T10:41:08;99611.09;;;7.18;95.55
15646;BME280;7922;43.622;1.476;2023-02-23T10:43:35;99581.84;;;7.00;94.39
15646;BME280;7922;43.622;1.476;2023-02-23T10:46:00;99639.03;;;7.23;95.05
15646;BME280;7922;43.622;1.476;2023-02-23T10:48:32;99616.09;;;7.00;94.35
15646;BME280;7922;43.622;1.476;2023-02-23T10:51:00;99619.06;;;6.90;95.05
15646;BME280;7922;43.622;1.476;2023-02-23T10:53:33;99612.50;;;6.77;95.18
15646;BME280;7922;43.622;1.476;2023-02-23T10:56:07;99581.78;;;6.77;95.31
15646;BME280;7922;43.622;1.476;2023-02-23T10:58:45;99591.66;;;6.70;94.98
15646;BME280;7922;43.622;1.476;2023-02-23T11:01:13;99627.22;;;6.82;95.37
15646;BME280;7922;43.622;1.476;2023-02-23T11:03:41;99683.09;;;7.18;96.09
15646;BME280;7922;43.622;1.476;2023-02-23T11:06:35;99683.31;;;7.12;95.41
15646;BME280;7922;43.622;1.476;2023-02-23T11:09:27;99682.38;;;7.13;95.42
15646;BME280;7922;43.622;1.476;2023-02-23T11:14:25;99619.19;;;6.87;95.77
15646;BME280;7922;43.622;1.476;2023-02-23T11:16:50;99635.63;;;6.93;95.47
15646;BME280;7922;43.622;1.476;2023-02-23T11:19:23;99661.56;;;7.06;95.22
15646;BME280;7922;43.622;1.476;2023-02-23T11:21:51;99609.06;;;6.74;95.51
15646;BME280;7922;43.622;1.476;2023-02-23T11:24:28;99595.81;;;6.51;94.74
15646;BME280;7922;43.622;1.476;2023-02-23T11:26:54;99649.94;;;6.86;95.57
15646;BME280;7922;43.622;1.476;2023-02-23T11:29:26;99670.78;;;6.92;95.49
15646;BME280;7922;43.622;1.476;2023-02-23T11:31:56;99657.28;;;6.75;95.22
15646;BME280;7922;43.622;1.476;2023-02-23T11:34:31;99654.56;;;6.78;95.51
15646;BME280;7922;43.622;1.476;2023-02-23T11:39:57;99602.63;;;6.57;95.84
15646;BME280;7922;43.622;1.476;2023-02-23T11:42:32;99660.69;;;6.79;94.69
15646;BME280;7922;43.622;1.476;2023-02-23T11:47:25;99646.97;;;6.69;95.20
15646;BME280;7922;43.622;1.476;2023-02-23T11:49:51;99628.22;;;6.51;95.28
15646;BME280;7922;43.622;1.476;2023-02-23T11:52:19;99590.19;;;6.34;95.55
15646;BME280;7922;43.622;1.476;2023-02-23T11:55:00;99569.16;;;6.06;96.38
15646;BME280;7922;43.622;1.476;2023-02-23T11:57:29;99640.09;;;6.65;96.69
15646;BME280;7922;43.622;1.476;2023-02-23T11:59:55;99578.84;;;6.32;95.31
15646;BME280;7922;43.622;1.476;2023-02-23T12:02:28;99663.69;;;6.94;96.06
15646;BME280;7922;43.622;1.476;2023-02-23T12:05:16;99622.22;;;6.74;95.03
15646;BME280;7922;43.622;1.476;2023-02-23T12:07:53;99656.81;;;6.90;94.52
15646;BME280;7922;43.622;1.476;2023-02-23T12:10:33;99655.19;;;6.86;94.54
15646;BME280;7922;43.622;1.476;2023-02-23T12:13:15;99585.22;;;6.24;93.75
15646;BME280;7922;43.622;1.476;2023-02-23T12:16:00;99604.63;;;6.50;94.36
15646;BME280;7922;43.622;1.476;2023-02-23T12:24:13;99545.44;;;6.35;94.14
15646;BME280;7922;43.622;1.476;2023-02-23T12:29:31;99633.72;;;6.98;93.50
15646;BME280;7922;43.622;1.476;2023-02-23T12:32:10;99616.25;;;6.96;93.13
15646;BME280;7922;43.622;1.476;2023-02-23T12:34:44;99599.75;;;6.91;92.14
15646;BME280;7922;43.622;1.476;2023-02-23T12:37:30;99618.59;;;7.05;93.03
15646;BME280;7922;43.622;1.476;2023-02-23T12:42:48;99636.66;;;6.89;92.58
15646;BME280;7922;43.622;1.476;2023-02-23T12:45:23;99624.09;;;6.71;92.27
15646;BME280;7922;43.622;1.476;2023-02-23T12:47:58;99611.84;;;6.70;92.99
15646;BME280;7922;43.622;1.476;2023-02-23T12:50:34;99618.97;;;6.93;92.37
15646;BME280;7922;43.622;1.476;2023-02-23T13:01:28;99600.72;;;6.88;91.90
15646;BME280;7922;43.622;1.476;2023-02-23T13:06:49;99592.19;;;7.07;91.85
15646;BME280;7922;43.622;1.476;2023-02-23T13:14:41;99585.69;;;7.42;90.83
15646;BME280;7922;43.622;1.476;2023-02-23T13:17:36;99575.16;;;7.17;89.84
15646;BME280;7922;43.622;1.476;2023-02-23T13:20:37;99591.81;;;7.17;90.96
15646;BME280;7922;43.622;1.476;2023-02-23T13:29:02;99582.38;;;7.12;89.37
15646;BME280;7922;43.622;1.476;2023-02-23T13:31:35;99534.78;;;6.91;89.18
15646;BME280;7922;43.622;1.476;2023-02-23T13:34:01;99558.13;;;7.02;90.15
15646;BME280;7922;43.622;1.476;2023-02-23T13:36:28;99562.94;;;6.89;90.10
15646;BME280;7922;43.622;1.476;2023-02-23T13:41:44;99509.84;;;6.77;88.79
15646;BME280;7922;43.622;1.476;2023-02-23T13:44:33;99581.09;;;7.22;89.03
15646;BME280;7922;43.622;1.476;2023-02-23T13:50:15;99559.66;;;7.33;88.78
15646;BME280;7922;43.622;1.476;2023-02-23T13:52:44;99535.94;;;7.08;88.23
15646;BME280;7922;43.622;1.476;2023-02-23T13:57:55;99497.25;;;6.86;88.63
15646;BME280;7922;43.622;1.476;2023-02-23T14:00:27;99476.66;;;6.72;88.98
15646;BME280;7922;43.622;1.476;2023-02-23T14:02:52;99468.50;;;6.80;88.05
15646;BME280;7922;43.622;1.476;2023-02-23T14:05:20;99570.56;;;7.47;88.60
15646;BME280;7922;43.622;1.476;2023-02-23T14:07:51;99536.59;;;7.14;88.06
15646;BME280;7922;43.622;1.476;2023-02-23T14:10:20;99569.66;;;7.48;87.67
15646;BME280;7922;43.622;1.476;2023-02-23T14:18:03;99533.16;;;7.37;89.08
15646;BME280;7922;43.622;1.476;2023-02-23T14:23:13;99532.59;;;7.53;88.39
15646;BME280;7922;43.622;1.476;2023-02-23T14:25:46;99554.41;;;7.56;88.70
15646;BME280;7922;43.622;1.476;2023-02-23T14:38:59;99452.41;;;6.88;89.07
15646;BME280;7922;43.622;1.476;2023-02-23T14:41:28;99546.72;;;7.27;89.89
15646;BME280;7922;43.622;1.476;2023-02-23T14:46:53;99472.44;;;6.92;90.61
15646;BME280;7922;43.622;1.476;2023-02-23T14:49:20;99540.31;;;7.34;90.80
15646;BME280;7922;43.622;1.476;2023-02-23T14:51:54;99459.88;;;6.75;91.08
15646;BME280;7922;43.622;1.476;2023-02-23T14:54:33;99543.53;;;7.17;91.22
15646;BME280;7922;43.622;1.476;2023-02-23T14:57:01;99502.66;;;6.82;90.55
15646;BME280;7922;43.622;1.476;2023-02-23T14:59:41;99494.75;;;6.82;90.38
15646;BME280;7922;43.622;1.476;2023-02-23T15:02:18;99528.50;;;6.95;90.94
15646;BME280;7922;43.622;1.476;2023-02-23T15:04:44;99497.97;;;6.65;90.78
15646;BME280;7922;43.622;1.476;2023-02-23T15:07:17;99448.84;;;6.39;91.25
15646;BME280;7922;43.622;1.476;2023-02-23T15:09:45;99483.91;;;6.66;91.58
15646;BME280;7922;43.622;1.476;2023-02-23T15:15:15;99498.69;;;6.95;91.92
15646;BME280;7922;43.622;1.476;2023-02-23T15:17:45;99483.09;;;6.89;91.26
15646;BME280;7922;43.622;1.476;2023-02-23T15:20:15;99495.28;;;6.91;90.88
15646;BME280;7922;43.622;1.476;2023-02-23T15:22:45;99435.28;;;6.76;91.45
15646;BME280;7922;43.622;1.476;2023-02-23T15:25:20;99441.63;;;6.70;91.40
15646;BME280;7922;43.622;1.476;2023-02-23T15:27:46;99421.28;;;6.50;92.74
15646;BME280;7922;43.622;1.476;2023-02-23T15:32:45;99497.06;;;6.91;92.43
15646;BME280;7922;43.622;1.476;2023-02-23T15:35:11;99486.06;;;6.80;91.87
15646;BME280;7922;43.622;1.476;2023-02-23T15:37:47;99475.28;;;6.61;92.70
15646;BME280;7922;43.622;1.476;2023-02-23T15:40:16;99490.56;;;6.76;93.35